Aérodrome :
LOGIN :

S'inscrire | Disclaimer

   EN    FR    IT 

 










Légende :    VFR   VFR Marginal   IFR   IFR Intensif   IFR Très Intensif
Visi : 
Plafond : 
>= 8 km
>= 3000ft
5 à 8 km
1000 à 3000 ft
1500m à 5 km
500 à 1000 ft
800 à 1500m
200 à 500 ft
< 800m
< 200 ft
Symboles :   Orages  Brouillard  Fortes neiges  Fortes précipitations  Vent > 20 kt
SIGMETs :   Divers  Orages  Givrage  Turbulence  Onde Orograph.  Cendres Volcan.






- Altitude de l'aérodrome : 276 ft


LYVR - Vršac International

DERNIER METAR :
  • 012100Z AUTO 21003KT 160V250 CAVOK 03/M02 Q1020

METARs EXPIRÉS :
  • 012030Z AUTO 20005KT CAVOK 04/M02 Q1020
  • 012000Z AUTO 20004KT CAVOK 04/M03 Q1019
  • 011930Z AUTO 19003KT 160V220 CAVOK 04/M03 Q1019
  • 011900Z AUTO 20003KT CAVOK 04/M03 Q1019
  • 011830Z AUTO 21005KT 170V230 CAVOK 04/M03 Q1019

TAF TAF LYVR
Valide du 01 à 18h jusqu'au 02 à 18h UTC


011700Z 0118/0218 11006KT 9999 BKN040 TX08/0212Z TNM01/0204Z
TEMPO 0203/0206 4000 BR



MET'MAP, la Météo Aéronautique d'un coup d'oeil ! - Copyright ORBIFLY Décembre 2007 - Disclaimer

ORBIFLY MET'MAP TEAM :

Programmation & Développement : Alexandra Zaïnal
Sur une idée originale de : Baudouin d'Aumeries
Assistance à la programmation : Marc-Olivier Méhu
Soutien technique & logistique : Manuel Goepfert

Contact : metmap@orbifly.com




SOURCES & CREDITS :

   NOAA